createdAt,value
2022-09-23T00:00:17.269Z,8.93
2022-09-23T00:01:17.333Z,8.89
2022-09-23T00:02:17.282Z,8.86
2022-09-23T00:03:17.307Z,8.94
2022-09-23T00:04:17.278Z,8.96
2022-09-23T00:05:17.324Z,8.83
2022-09-23T00:06:17.240Z,8.83
2022-09-23T00:07:17.245Z,8.57
2022-09-23T00:08:17.244Z,8.58
2022-09-23T00:09:17.263Z,8.55
2022-09-23T00:10:17.228Z,8.64
2022-09-23T00:11:17.224Z,8.68
2022-09-23T00:12:17.213Z,8.64
2022-09-23T00:13:17.206Z,8.67
2022-09-23T00:14:17.222Z,8.71
2022-09-23T00:15:17.204Z,8.73
2022-09-23T00:16:17.298Z,8.55
2022-09-23T00:17:17.200Z,8.65
2022-09-23T00:18:17.182Z,8.52
2022-09-23T00:19:17.207Z,8.54
2022-09-23T00:20:17.212Z,8.57
2022-09-23T00:21:17.179Z,8.55
2022-09-23T00:22:17.186Z,8.54
2022-09-23T00:23:17.161Z,8.40
2022-09-23T00:24:17.173Z,8.28
2022-09-23T00:25:17.210Z,8.27
2022-09-23T00:26:17.172Z,8.20
2022-09-23T00:27:17.154Z,8.20
2022-09-23T00:28:17.135Z,8.17
2022-09-23T00:29:17.138Z,8.14
2022-09-23T00:30:17.169Z,8.17
2022-09-23T00:31:17.147Z,8.20
2022-09-23T00:32:17.124Z,8.17
2022-09-23T00:33:17.110Z,8.27
2022-09-23T00:34:17.136Z,8.29
2022-09-23T00:35:17.108Z,8.29
2022-09-23T00:36:17.126Z,8.28
2022-09-23T00:37:17.120Z,8.29
2022-09-23T00:38:17.095Z,8.29
2022-09-23T00:39:17.076Z,8.28
2022-09-23T00:40:17.216Z,8.31
2022-09-23T00:41:17.106Z,8.36
2022-09-23T00:42:17.095Z,8.29
2022-09-23T00:43:17.116Z,8.34
2022-09-23T00:44:17.066Z,8.32
2022-09-23T00:45:17.062Z,8.40
2022-09-23T00:46:17.125Z,8.27
2022-09-23T00:47:17.100Z,8.36
2022-09-23T00:48:17.087Z,8.43
2022-09-23T00:49:17.041Z,8.36
2022-09-23T00:50:17.051Z,8.43
2022-09-23T00:51:17.042Z,8.43
2022-09-23T00:52:17.037Z,8.42
2022-09-23T00:53:17.057Z,8.47
2022-09-23T00:54:17.014Z,8.43
2022-09-23T00:55:17.017Z,8.40
2022-09-23T00:56:17.000Z,8.42
2022-09-23T00:57:17.008Z,8.22
2022-09-23T00:58:17.032Z,8.29
2022-09-23T00:59:17.028Z,8.24
2022-09-23T01:00:17.028Z,8.12
2022-09-23T01:01:17.031Z,8.10
2022-09-23T01:02:17.082Z,8.13
2022-09-23T01:03:16.968Z,7.96
2022-09-23T01:04:16.990Z,7.76
2022-09-23T01:05:16.960Z,7.47
2022-09-23T01:06:16.958Z,7.15
2022-09-23T01:07:16.961Z,6.81
2022-09-23T01:08:16.947Z,6.72
2022-09-23T01:09:17.074Z,6.68
2022-09-23T01:10:16.936Z,6.64
2022-09-23T01:11:16.929Z,6.73
2022-09-23T01:12:16.942Z,6.57
2022-09-23T01:13:16.938Z,6.46
2022-09-23T01:14:16.901Z,6.55
2022-09-23T01:15:17.935Z,6.28
2022-09-23T01:16:17.953Z,6.24
2022-09-23T01:17:16.913Z,6.02
2022-09-23T01:18:16.895Z,6.06
2022-09-23T01:19:16.922Z,5.96
2022-09-23T01:20:16.906Z,6.03
2022-09-23T01:21:16.888Z,6.20
2022-09-23T01:22:16.870Z,6.36
2022-09-23T01:23:16.879Z,6.24
2022-09-23T01:24:16.871Z,6.17
2022-09-23T01:25:17.016Z,6.13
2022-09-23T01:26:16.846Z,6.40
2022-09-23T01:27:16.897Z,6.46
2022-09-23T01:28:16.928Z,6.65
2022-09-23T01:29:16.838Z,6.69
2022-09-23T01:30:16.866Z,6.89
2022-09-23T01:31:16.905Z,6.89
2022-09-23T01:32:16.829Z,6.87
2022-09-23T01:33:16.869Z,7.00
2022-09-23T01:34:16.841Z,7.08
2022-09-23T01:35:16.808Z,7.14
2022-09-23T01:36:16.817Z,7.24
2022-09-23T01:37:16.826Z,7.26
2022-09-23T01:38:16.824Z,7.32
2022-09-23T01:39:16.795Z,7.37
2022-09-23T01:40:16.830Z,7.48
2022-09-23T01:41:16.810Z,7.50
2022-09-23T01:42:16.789Z,7.63
2022-09-23T01:43:16.799Z,7.73
2022-09-23T01:44:16.796Z,7.76
2022-09-23T01:45:16.761Z,7.73
2022-09-23T01:46:16.780Z,7.79
2022-09-23T01:47:16.758Z,7.85
2022-09-23T01:48:16.770Z,7.82
2022-09-23T01:49:16.758Z,7.88
2022-09-23T01:50:16.762Z,7.89
2022-09-23T01:51:16.725Z,8.00
2022-09-23T01:52:16.745Z,7.92
2022-09-23T01:53:16.718Z,7.95
2022-09-23T01:54:16.738Z,7.82
2022-09-23T01:55:16.713Z,7.94
2022-09-23T01:56:16.730Z,7.82
2022-09-23T01:57:16.689Z,7.85
2022-09-23T01:58:16.714Z,7.85
2022-09-23T01:59:16.722Z,7.79
2022-09-23T02:00:16.693Z,7.88
2022-09-23T02:01:16.783Z,7.79
2022-09-23T02:02:16.745Z,7.84
2022-09-23T02:03:16.681Z,7.79
2022-09-23T02:04:16.687Z,7.70
2022-09-23T02:05:16.658Z,7.50
2022-09-23T02:06:16.710Z,7.45
2022-09-23T02:07:16.737Z,7.47
2022-09-23T02:08:17.640Z,7.42
2022-09-23T02:09:16.628Z,7.50
2022-09-23T02:10:16.644Z,7.44
2022-09-23T02:11:16.638Z,7.42
2022-09-23T02:12:16.641Z,7.60
2022-09-23T02:13:16.600Z,7.45
2022-09-23T02:14:17.611Z,7.45
2022-09-23T02:15:16.622Z,7.45
2022-09-23T02:16:16.635Z,7.34
2022-09-23T02:17:16.591Z,7.33
2022-09-23T02:18:16.587Z,7.23
2022-09-23T02:19:16.584Z,7.19
2022-09-23T02:20:16.589Z,7.11
2022-09-23T02:21:16.602Z,6.86
2022-09-23T02:22:16.567Z,6.65
2022-09-23T02:23:16.596Z,6.68
2022-09-23T02:24:16.551Z,6.73
2022-09-23T02:25:16.576Z,6.64
2022-09-23T02:26:16.555Z,6.79
2022-09-23T02:27:16.539Z,6.64
2022-09-23T02:28:16.559Z,6.71
2022-09-23T02:29:16.526Z,6.60
2022-09-23T02:30:16.560Z,6.75
2022-09-23T02:31:16.546Z,6.68
2022-09-23T02:32:16.525Z,6.64
2022-09-23T02:33:16.504Z,6.71
2022-09-23T02:34:16.482Z,6.75
2022-09-23T02:35:16.513Z,6.89
2022-09-23T02:36:16.548Z,6.90
2022-09-23T02:37:16.511Z,6.96
2022-09-23T02:38:16.485Z,6.90
2022-09-23T02:39:16.474Z,6.97
2022-09-23T02:40:16.576Z,7.00
2022-09-23T02:41:16.465Z,6.79
2022-09-23T02:42:16.491Z,6.78
2022-09-23T02:43:17.473Z,6.64
2022-09-23T02:44:16.471Z,6.69
2022-09-23T02:45:16.449Z,6.65
2022-09-23T02:46:16.487Z,6.72
2022-09-23T02:47:16.419Z,6.69
2022-09-23T02:48:16.436Z,6.46
2022-09-23T02:49:16.437Z,6.38
2022-09-23T02:50:16.408Z,6.16
2022-09-23T02:51:16.401Z,6.19
2022-09-23T02:52:16.418Z,6.25
2022-09-23T02:53:16.395Z,6.32
2022-09-23T02:54:16.378Z,6.38
2022-09-23T02:55:16.375Z,6.46
2022-09-23T02:56:16.385Z,6.46
2022-09-23T02:57:16.410Z,6.55
2022-09-23T02:58:16.380Z,6.53
2022-09-23T02:59:16.344Z,6.60
2022-09-23T03:00:16.352Z,6.58
2022-09-23T03:01:16.395Z,6.68
2022-09-23T03:02:16.391Z,6.69
2022-09-23T03:03:16.364Z,6.82
2022-09-23T03:04:16.362Z,6.83
2022-09-23T03:05:16.434Z,6.81
2022-09-23T03:06:16.317Z,6.96
2022-09-23T03:07:16.345Z,6.89
2022-09-23T03:08:16.288Z,6.94
2022-09-23T03:09:16.323Z,6.89
2022-09-23T03:10:16.326Z,6.89
2022-09-23T03:11:16.273Z,6.94
2022-09-23T03:12:17.310Z,6.79
2022-09-23T03:13:17.298Z,6.82
2022-09-23T03:14:16.277Z,6.96
2022-09-23T03:15:16.265Z,6.89
2022-09-23T03:16:16.287Z,6.81
2022-09-23T03:17:16.258Z,6.81
2022-09-23T03:18:16.270Z,6.76
2022-09-23T03:19:16.253Z,6.57
2022-09-23T03:20:16.387Z,6.40
2022-09-23T03:21:16.222Z,6.25
2022-09-23T03:22:16.233Z,6.27
2022-09-23T03:23:16.221Z,6.24
2022-09-23T03:24:16.211Z,6.35
2022-09-23T03:25:16.291Z,6.39
2022-09-23T03:26:16.198Z,6.32
2022-09-23T03:27:16.221Z,6.13
2022-09-23T03:28:16.179Z,6.10
2022-09-23T03:29:16.173Z,6.11
2022-09-23T03:30:16.322Z,6.14
2022-09-23T03:31:16.288Z,6.10
2022-09-23T03:32:16.149Z,6.11
2022-09-23T03:33:16.163Z,5.90
2022-09-23T03:34:16.165Z,5.87
2022-09-23T03:35:16.245Z,5.88
2022-09-23T03:36:16.158Z,5.58
2022-09-23T03:37:16.164Z,5.35
2022-09-23T03:38:16.175Z,5.27
2022-09-23T03:39:16.127Z,5.33
2022-09-23T03:40:16.301Z,5.26
2022-09-23T03:41:16.140Z,5.32
2022-09-23T03:42:16.122Z,5.17
2022-09-23T03:43:16.127Z,5.05
2022-09-23T03:44:16.093Z,5.09
2022-09-23T03:45:16.114Z,5.33
2022-09-23T03:46:16.211Z,5.38
2022-09-23T03:47:16.110Z,5.56
2022-09-23T03:48:16.087Z,5.60
2022-09-23T03:49:16.068Z,5.69
2022-09-23T03:50:16.111Z,5.77
2022-09-23T03:51:16.065Z,5.83
2022-09-23T03:52:16.079Z,5.80
2022-09-23T03:53:16.069Z,5.80
2022-09-23T03:54:16.041Z,5.87
2022-09-23T03:55:16.077Z,5.80
2022-09-23T03:56:16.050Z,5.78
2022-09-23T03:57:16.034Z,5.66
2022-09-23T03:58:16.065Z,5.70
2022-09-23T03:59:16.009Z,5.55
2022-09-23T04:00:16.030Z,5.47
2022-09-23T04:01:16.080Z,5.44
2022-09-23T04:02:16.074Z,5.23
2022-09-23T04:03:16.012Z,5.17
2022-09-23T04:04:16.011Z,5.27
2022-09-23T04:05:15.992Z,5.30
2022-09-23T04:06:15.960Z,5.29
2022-09-23T04:07:15.963Z,5.40
2022-09-23T04:08:15.971Z,5.49
2022-09-23T04:09:15.979Z,5.59
2022-09-23T04:10:16.005Z,5.81
2022-09-23T04:11:15.955Z,5.80
2022-09-23T04:12:15.954Z,5.90
2022-09-23T04:13:15.955Z,5.99
2022-09-23T04:14:16.369Z,6.06
2022-09-23T04:15:16.032Z,6.25
2022-09-23T04:16:16.019Z,6.21
2022-09-23T04:17:15.913Z,6.32
2022-09-23T04:18:15.918Z,6.38
2022-09-23T04:19:15.908Z,6.51
2022-09-23T04:20:15.923Z,6.45
2022-09-23T04:21:15.895Z,6.60
2022-09-23T04:22:15.882Z,6.54
2022-09-23T04:23:15.878Z,6.64
2022-09-23T04:24:15.888Z,6.76
2022-09-23T04:25:15.928Z,6.69
2022-09-23T04:26:15.877Z,6.61
2022-09-23T04:27:15.851Z,6.83
2022-09-23T04:28:15.878Z,6.72
2022-09-23T04:29:15.864Z,6.72
2022-09-23T04:30:15.870Z,6.81
2022-09-23T04:31:15.879Z,6.81
2022-09-23T04:32:15.844Z,6.75
2022-09-23T04:33:15.808Z,6.72
2022-09-23T04:34:15.814Z,6.69
2022-09-23T04:35:15.811Z,6.75
2022-09-23T04:36:15.810Z,6.81
2022-09-23T04:37:15.818Z,6.61
2022-09-23T04:38:15.825Z,6.72
2022-09-23T04:39:15.792Z,6.64
2022-09-23T04:40:15.817Z,6.72
2022-09-23T04:41:15.810Z,6.72
2022-09-23T04:42:15.942Z,6.36
2022-09-23T04:43:15.754Z,6.42
2022-09-23T04:44:15.870Z,6.35
2022-09-23T04:45:15.897Z,6.27
2022-09-23T04:46:15.850Z,6.30
2022-09-23T04:47:15.837Z,6.35
2022-09-23T04:48:15.728Z,6.38
2022-09-23T04:49:15.714Z,6.25
2022-09-23T04:50:15.707Z,6.06
2022-09-23T04:51:16.810Z,6.05
2022-09-23T04:52:15.697Z,6.01
2022-09-23T04:53:15.684Z,6.02
2022-09-23T04:54:15.707Z,6.11
2022-09-23T04:55:15.701Z,6.14
2022-09-23T04:56:15.697Z,6.20
2022-09-23T04:57:16.662Z,6.16
2022-09-23T04:58:15.664Z,6.21
2022-09-23T04:59:15.730Z,6.17
2022-09-23T05:00:15.686Z,6.28
2022-09-23T05:01:15.824Z,6.27
2022-09-23T05:02:15.729Z,6.25
2022-09-23T05:03:15.630Z,6.16
2022-09-23T05:04:15.631Z,6.25
2022-09-23T05:05:15.772Z,6.06
2022-09-23T05:06:15.636Z,6.06
2022-09-23T05:07:15.619Z,5.99
2022-09-23T05:08:15.593Z,5.95
2022-09-23T05:09:15.583Z,6.03
2022-09-23T05:10:15.592Z,6.08
2022-09-23T05:11:15.617Z,6.05
2022-09-23T05:12:15.641Z,6.14
2022-09-23T05:13:15.565Z,6.17
2022-09-23T05:14:15.559Z,6.25
2022-09-23T05:15:15.558Z,6.33
2022-09-23T05:16:15.651Z,6.35
2022-09-23T05:17:15.561Z,6.40
2022-09-23T05:18:20.175Z,6.45
2022-09-23T05:19:17.637Z,6.60
2022-09-23T05:20:15.541Z,6.50
2022-09-23T05:21:15.527Z,6.14
2022-09-23T05:22:15.522Z,5.80
2022-09-23T05:23:15.529Z,5.73
2022-09-23T05:24:15.490Z,5.59
2022-09-23T05:25:15.519Z,5.47
2022-09-23T05:26:15.483Z,5.59
2022-09-23T05:27:15.488Z,5.67
2022-09-23T05:28:15.489Z,5.83
2022-09-23T05:29:15.495Z,5.88
2022-09-23T05:30:15.449Z,5.93
2022-09-23T05:31:19.658Z,5.92
2022-09-23T05:32:16.572Z,5.83
2022-09-23T05:33:15.464Z,5.81
2022-09-23T05:34:15.443Z,5.84
2022-09-23T05:35:15.446Z,5.92
2022-09-23T05:36:15.409Z,6.08
2022-09-23T05:37:15.403Z,6.05
2022-09-23T05:38:15.437Z,6.32
2022-09-23T05:39:15.401Z,6.36
2022-09-23T05:40:15.432Z,6.55
2022-09-23T05:41:15.384Z,6.54
2022-09-23T05:42:15.486Z,6.60
2022-09-23T05:43:15.510Z,6.72
2022-09-23T05:44:15.547Z,6.79
2022-09-23T05:45:15.374Z,6.83
2022-09-23T05:46:15.471Z,6.78
2022-09-23T05:47:15.528Z,6.76
2022-09-23T05:48:15.335Z,6.75
2022-09-23T05:49:15.380Z,6.75
2022-09-23T05:50:15.392Z,6.81
2022-09-23T05:51:15.414Z,6.83
2022-09-23T05:52:15.338Z,6.94
2022-09-23T05:53:15.420Z,6.90
2022-09-23T05:54:15.337Z,6.83
2022-09-23T05:55:15.303Z,6.58
2022-09-23T05:56:15.298Z,6.25
2022-09-23T05:57:15.327Z,5.98
2022-09-23T05:58:15.416Z,5.81
2022-09-23T05:59:15.282Z,5.81
2022-09-23T06:00:15.318Z,5.80
2022-09-23T06:01:15.323Z,5.90
2022-09-23T06:02:15.343Z,6.06
2022-09-23T06:03:15.344Z,6.20
2022-09-23T06:04:15.329Z,6.51
2022-09-23T06:05:15.255Z,6.68
2022-09-23T06:06:15.838Z,6.86
2022-09-23T06:07:15.367Z,6.97
2022-09-23T06:08:15.236Z,6.99
2022-09-23T06:09:15.349Z,7.21
2022-09-23T06:10:15.439Z,7.33
2022-09-23T06:11:15.322Z,7.42
2022-09-23T06:12:15.202Z,7.54
2022-09-23T06:13:15.310Z,7.66
2022-09-23T06:14:15.246Z,7.69
2022-09-23T06:15:15.210Z,7.77
2022-09-23T06:16:15.226Z,7.79
2022-09-23T06:17:15.196Z,7.89
2022-09-23T06:18:15.209Z,8.09
2022-09-23T06:19:15.352Z,8.18
2022-09-23T06:20:15.167Z,8.17
2022-09-23T06:21:15.163Z,8.21
2022-09-23T06:22:15.287Z,8.36
2022-09-23T06:23:15.151Z,8.45
2022-09-23T06:24:19.041Z,8.46
2022-09-23T06:25:17.150Z,8.46
2022-09-23T06:26:15.159Z,8.64
2022-09-23T06:27:15.196Z,8.64
2022-09-23T06:28:15.138Z,8.71
2022-09-23T06:29:15.128Z,8.73
2022-09-23T06:30:15.126Z,8.82
2022-09-23T06:31:15.258Z,8.85
2022-09-23T06:32:15.095Z,8.93
2022-09-23T06:33:15.470Z,8.91
2022-09-23T06:34:15.248Z,8.98
2022-09-23T06:35:24.470Z,8.98
2022-09-23T06:36:33.308Z,9.16
2022-09-23T06:37:20.203Z,9.03
2022-09-23T06:38:16.087Z,9.15
2022-09-23T06:39:15.104Z,9.30
2022-09-23T06:40:15.109Z,9.19
2022-09-23T06:41:15.287Z,9.19
2022-09-23T06:42:15.048Z,9.23
2022-09-23T06:43:15.085Z,9.26
2022-09-23T06:44:15.092Z,9.26
2022-09-23T06:45:15.025Z,9.34
2022-09-23T06:46:15.091Z,9.38
2022-09-23T06:47:15.052Z,9.34
2022-09-23T06:48:15.006Z,9.31
2022-09-23T06:49:15.038Z,9.37
2022-09-23T06:50:15.010Z,9.30
2022-09-23T06:51:15.084Z,9.30
2022-09-23T06:52:15.009Z,9.30
2022-09-23T06:53:14.989Z,9.34
2022-09-23T06:54:15.025Z,9.48
2022-09-23T06:55:15.021Z,9.34
2022-09-23T06:56:15.009Z,9.40
2022-09-23T06:57:15.007Z,9.20
2022-09-23T06:58:14.996Z,9.27
2022-09-23T06:59:14.981Z,9.27
2022-09-23T07:00:15.076Z,9.19
2022-09-23T07:01:14.970Z,9.13
2022-09-23T07:02:15.101Z,9.13
2022-09-23T07:03:14.942Z,9.04
2022-09-23T07:04:14.938Z,9.13
2022-09-23T07:05:14.942Z,9.00
2022-09-23T07:06:14.921Z,9.08
2022-09-23T07:07:14.946Z,9.01
2022-09-23T07:08:14.924Z,9.10
2022-09-23T07:09:14.914Z,9.15
2022-09-23T07:10:14.971Z,9.08
2022-09-23T07:11:19.181Z,9.08
2022-09-23T07:12:15.939Z,9.22
2022-09-23T07:13:16.352Z,9.26
2022-09-23T07:14:15.891Z,9.37
2022-09-23T07:15:14.905Z,9.27
2022-09-23T07:16:15.045Z,9.32
2022-09-23T07:17:14.905Z,9.40
2022-09-23T07:18:14.926Z,9.50
2022-09-23T07:19:14.866Z,9.53
2022-09-23T07:20:14.865Z,9.55
2022-09-23T07:21:14.854Z,9.55
2022-09-23T07:22:14.894Z,9.63
2022-09-23T07:23:14.910Z,9.70
2022-09-23T07:24:14.855Z,9.78
2022-09-23T07:25:14.842Z,9.71
2022-09-23T07:26:15.533Z,9.86
2022-09-23T07:27:14.861Z,9.86
2022-09-23T07:28:14.868Z,9.80
2022-09-23T07:29:14.824Z,9.92
2022-09-23T07:30:24.034Z,10.01
2022-09-23T07:31:23.046Z,10.11
2022-09-23T07:32:15.936Z,10.22
2022-09-23T07:33:28.247Z,10.29
2022-09-23T07:34:17.412Z,10.38
2022-09-23T07:35:14.798Z,10.42
2022-09-23T07:36:14.805Z,10.57
2022-09-23T07:37:14.863Z,10.63
2022-09-23T07:38:14.797Z,10.78
2022-09-23T07:39:14.795Z,10.68
2022-09-23T07:40:14.869Z,10.69
2022-09-23T07:41:14.893Z,10.63
2022-09-23T07:42:14.779Z,10.76
2022-09-23T07:43:14.787Z,10.81
2022-09-23T07:44:14.773Z,10.91
2022-09-23T07:45:14.794Z,10.81
2022-09-23T07:46:14.810Z,10.49
2022-09-23T07:47:14.739Z,10.07
2022-09-23T07:48:14.730Z,9.74
2022-09-23T07:49:14.734Z,9.70
2022-09-23T07:50:14.764Z,9.74
2022-09-23T07:51:14.724Z,9.98
2022-09-23T07:52:14.700Z,10.16
2022-09-23T07:53:14.719Z,10.43
2022-09-23T07:54:14.701Z,10.44
2022-09-23T07:55:18.904Z,10.16
2022-09-23T07:56:16.697Z,9.98
2022-09-23T07:57:14.694Z,10.11
2022-09-23T07:58:14.689Z,10.22
2022-09-23T07:59:14.693Z,10.51
2022-09-23T08:00:14.832Z,10.73
2022-09-23T08:01:14.775Z,11.03
2022-09-23T08:02:14.699Z,11.49
2022-09-23T08:03:14.719Z,11.70
2022-09-23T08:04:14.663Z,11.79
2022-09-23T08:05:14.662Z,12.08
2022-09-23T08:06:14.681Z,12.34
2022-09-23T08:07:14.671Z,12.18
2022-09-23T08:08:14.627Z,12.31
2022-09-23T08:09:14.647Z,12.19
2022-09-23T08:10:14.656Z,12.21
2022-09-23T08:11:14.663Z,12.37
2022-09-23T08:12:16.186Z,12.61
2022-09-23T08:13:15.634Z,12.58
2022-09-23T08:14:14.614Z,12.59
2022-09-23T08:15:14.598Z,12.61
2022-09-23T08:16:14.655Z,12.76
2022-09-23T08:17:14.602Z,12.74
2022-09-23T08:18:14.586Z,12.80
2022-09-23T08:19:14.561Z,12.92
2022-09-23T08:20:14.556Z,12.95
2022-09-23T08:21:14.544Z,13.19
2022-09-23T08:22:14.591Z,13.46
2022-09-23T08:23:14.532Z,13.75
2022-09-23T08:24:14.531Z,13.79
2022-09-23T08:25:14.514Z,13.90
2022-09-23T08:26:20.948Z,14.12
2022-09-23T08:27:16.555Z,14.20
2022-09-23T08:28:14.503Z,14.31
2022-09-23T08:29:14.487Z,14.44
2022-09-23T08:30:14.526Z,14.48
2022-09-23T08:31:14.560Z,14.53
2022-09-23T08:32:14.475Z,14.59
2022-09-23T08:33:14.477Z,14.71
2022-09-23T08:34:14.461Z,14.94
2022-09-23T08:35:14.464Z,14.97
2022-09-23T08:36:14.478Z,15.07
2022-09-23T08:37:14.443Z,15.13
2022-09-23T08:38:14.479Z,15.25
2022-09-23T08:39:14.416Z,15.01
2022-09-23T08:40:14.497Z,14.93
2022-09-23T08:41:14.436Z,14.93
2022-09-23T08:42:14.442Z,14.98
2022-09-23T08:43:14.494Z,14.97
2022-09-23T08:44:14.438Z,15.13
2022-09-23T08:45:14.390Z,15.22
2022-09-23T08:46:14.419Z,15.34
2022-09-23T08:47:14.433Z,15.44
2022-09-23T08:48:14.357Z,15.38
2022-09-23T08:49:14.352Z,15.23
2022-09-23T08:50:14.347Z,14.59
2022-09-23T08:51:14.362Z,14.06
2022-09-23T08:52:14.372Z,14.11
2022-09-23T08:53:14.346Z,14.21
2022-09-23T08:54:14.349Z,14.30
2022-09-23T08:55:14.372Z,14.41
2022-09-23T08:56:14.309Z,14.57
2022-09-23T08:57:14.344Z,14.48
2022-09-23T08:58:25.065Z,14.05
2022-09-23T08:59:16.298Z,14.06
2022-09-23T09:00:14.272Z,14.16
2022-09-23T09:01:14.327Z,14.27
2022-09-23T09:02:14.314Z,14.44
2022-09-23T09:03:14.254Z,14.57
2022-09-23T09:04:14.261Z,14.71
2022-09-23T09:05:14.241Z,14.87
2022-09-23T09:06:14.233Z,15.11
2022-09-23T09:08:16.275Z,14.49
2022-09-23T09:09:14.243Z,14.48
2022-09-23T09:10:14.248Z,14.72
2022-09-23T09:11:14.206Z,14.80
2022-09-23T09:12:14.218Z,14.54
2022-09-23T09:13:14.208Z,14.66
2022-09-23T09:14:14.184Z,14.72
2022-09-23T09:15:14.151Z,14.86
2022-09-23T09:16:14.171Z,14.95
2022-09-23T09:17:14.184Z,15.28
2022-09-23T09:18:14.165Z,15.40
2022-09-23T09:19:14.135Z,15.49
2022-09-23T09:20:14.139Z,15.48
2022-09-23T09:21:14.191Z,15.52
2022-09-23T09:22:14.127Z,15.52
2022-09-23T09:23:14.100Z,15.66
2022-09-23T09:24:14.084Z,15.77
2022-09-23T09:25:14.468Z,15.81
2022-09-23T09:26:15.129Z,15.88
2022-09-23T09:27:14.076Z,15.88
2022-09-23T09:28:14.111Z,16.03
2022-09-23T09:29:34.423Z,16.11
2022-09-23T09:30:16.046Z,15.91
2022-09-23T09:31:14.092Z,16.14
2022-09-23T09:32:14.075Z,16.10
2022-09-23T09:33:14.031Z,16.04
2022-09-23T09:34:14.015Z,16.06
2022-09-23T09:35:14.002Z,16.03
2022-09-23T09:36:14.048Z,16.03
2022-09-23T09:37:14.003Z,15.92
2022-09-23T09:38:13.985Z,15.85
2022-09-23T09:39:14.019Z,16.04
2022-09-23T09:40:14.062Z,16.07
2022-09-23T09:41:13.979Z,16.06
2022-09-23T09:42:13.941Z,16.14
2022-09-23T09:43:13.948Z,16.18
2022-09-23T09:44:13.958Z,15.93
2022-09-23T09:45:13.961Z,16.06
2022-09-23T09:46:13.979Z,15.95
2022-09-23T09:47:13.922Z,15.92
2022-09-23T09:48:14.072Z,15.68
2022-09-23T09:49:13.901Z,15.58
2022-09-23T09:50:13.873Z,15.66
2022-09-23T09:51:13.865Z,15.49
2022-09-23T09:52:13.849Z,15.52
2022-09-23T09:53:13.832Z,15.41
2022-09-23T09:54:13.793Z,15.51
2022-09-23T09:55:13.787Z,15.71
2022-09-23T09:56:13.806Z,15.99
2022-09-23T09:57:13.788Z,15.93
2022-09-23T09:58:13.832Z,15.64
2022-09-23T09:59:13.786Z,15.76
2022-09-23T10:00:13.755Z,15.68
2022-09-23T10:01:13.829Z,15.73
2022-09-23T10:02:13.775Z,15.62
2022-09-23T10:03:13.740Z,15.77
2022-09-23T10:04:13.780Z,15.98
2022-09-23T10:05:13.759Z,16.54
2022-09-23T10:06:13.694Z,16.55
2022-09-23T10:07:13.697Z,16.29
2022-09-23T10:08:13.705Z,16.44
2022-09-23T10:09:13.683Z,16.62
2022-09-23T10:10:28.831Z,16.84
2022-09-23T10:11:15.677Z,16.63
2022-09-23T10:12:13.653Z,16.87
2022-09-23T10:13:13.657Z,16.92
2022-09-23T10:14:13.660Z,16.65
2022-09-23T10:15:13.653Z,16.65
2022-09-23T10:16:13.715Z,16.96
2022-09-23T10:17:13.620Z,17.35
2022-09-23T10:18:13.624Z,17.35
2022-09-23T10:19:13.609Z,17.27
2022-09-23T10:20:13.591Z,17.20
2022-09-23T10:21:13.589Z,16.92
2022-09-23T10:22:13.576Z,16.80
2022-09-23T10:23:13.578Z,16.90
2022-09-23T10:24:13.584Z,16.98
2022-09-23T10:25:13.559Z,16.88
2022-09-23T10:26:13.563Z,16.84
2022-09-23T10:27:13.560Z,17.09
2022-09-23T10:28:13.550Z,16.95
2022-09-23T10:29:13.520Z,17.05
2022-09-23T10:30:13.515Z,17.07
2022-09-23T10:31:13.578Z,17.12
2022-09-23T10:32:13.523Z,17.03
2022-09-23T10:33:13.598Z,17.09
2022-09-23T10:34:13.497Z,17.51
2022-09-23T10:35:13.589Z,17.58
2022-09-23T10:36:13.475Z,17.51
2022-09-23T10:37:13.517Z,17.57
2022-09-23T10:38:13.494Z,17.79
2022-09-23T10:39:13.477Z,17.66
2022-09-23T10:40:13.484Z,17.68
2022-09-23T10:41:13.458Z,17.95
2022-09-23T10:42:13.458Z,18.01
2022-09-23T10:43:13.450Z,17.86
2022-09-23T10:44:13.493Z,17.68
2022-09-23T10:45:13.414Z,17.65
2022-09-23T10:46:13.444Z,17.76
2022-09-23T10:47:13.435Z,17.60
2022-09-23T10:48:13.398Z,17.74
2022-09-23T10:49:13.625Z,17.87
2022-09-23T10:50:13.398Z,17.98
2022-09-23T10:51:13.375Z,18.16
2022-09-23T10:52:13.411Z,17.99
2022-09-23T10:53:13.372Z,18.14
2022-09-23T10:54:13.385Z,17.99
2022-09-23T10:55:13.393Z,17.98
2022-09-23T10:56:13.374Z,17.80
2022-09-23T10:57:13.342Z,17.24
2022-09-23T10:58:13.322Z,17.60
2022-09-23T10:59:13.377Z,17.70
2022-09-23T11:00:13.373Z,17.79
2022-09-23T11:01:13.451Z,17.70
2022-09-23T11:02:13.327Z,17.81
2022-09-23T11:03:13.300Z,17.83
2022-09-23T11:04:13.480Z,18.02
2022-09-23T11:05:14.371Z,17.92
2022-09-23T11:06:13.301Z,17.77
2022-09-23T11:07:13.307Z,17.68
2022-09-23T11:08:13.277Z,17.73
2022-09-23T11:09:13.270Z,17.76
2022-09-23T11:10:28.926Z,17.73
2022-09-23T11:11:15.432Z,17.77
2022-09-23T11:12:13.240Z,17.89
2022-09-23T11:13:13.249Z,18.04
2022-09-23T11:14:13.248Z,18.05
2022-09-23T11:15:13.450Z,18.29
2022-09-23T11:16:13.362Z,18.21
2022-09-23T11:17:13.302Z,18.29
2022-09-23T11:18:13.214Z,18.42
2022-09-23T11:19:13.228Z,18.54
2022-09-23T11:20:13.222Z,18.57
2022-09-23T11:21:13.201Z,18.72
2022-09-23T11:22:13.273Z,18.84
2022-09-23T11:23:13.223Z,18.78
2022-09-23T11:24:13.220Z,18.91
2022-09-23T11:25:13.204Z,18.97
2022-09-23T11:26:13.206Z,18.94
2022-09-23T11:27:13.222Z,18.79
2022-09-23T11:28:13.190Z,18.76
2022-09-23T11:29:13.467Z,18.36
2022-09-23T11:30:13.246Z,18.46
2022-09-23T11:31:13.171Z,18.26
2022-09-23T11:32:13.129Z,18.28
2022-09-23T11:33:13.182Z,17.96
2022-09-23T11:34:13.111Z,18.02
2022-09-23T11:35:13.152Z,17.92
2022-09-23T11:36:13.097Z,18.04
2022-09-23T11:37:13.097Z,17.95
2022-09-23T11:38:13.164Z,17.94
2022-09-23T11:39:13.116Z,18.09
2022-09-23T11:40:13.302Z,18.20
2022-09-23T11:41:13.117Z,18.39
2022-09-23T11:42:13.139Z,18.39
2022-09-23T11:43:13.111Z,18.19
2022-09-23T11:44:13.090Z,17.94
2022-09-23T11:45:13.135Z,17.95
2022-09-23T11:46:13.127Z,18.04
2022-09-23T11:47:13.064Z,17.87
2022-09-23T11:48:13.068Z,18.07
2022-09-23T11:49:13.034Z,17.89
2022-09-23T11:50:13.083Z,17.96
2022-09-23T11:51:13.036Z,17.89
2022-09-23T11:52:13.011Z,17.80
2022-09-23T11:53:13.042Z,17.76
2022-09-23T11:54:16.117Z,17.74
2022-09-23T11:55:21.600Z,17.80
2022-09-23T11:56:21.294Z,17.79
2022-09-23T11:57:13.975Z,17.79
2022-09-23T11:58:22.900Z,17.91
2022-09-23T11:59:15.153Z,17.81
2022-09-23T12:00:13.016Z,17.60
2022-09-23T12:01:13.012Z,17.65
2022-09-23T12:02:20.353Z,17.92
2022-09-23T12:03:15.055Z,17.84
2022-09-23T12:04:20.024Z,17.94
2022-09-23T12:05:15.146Z,18.09
2022-09-23T12:06:12.982Z,18.26
2022-09-23T12:07:12.955Z,18.23
2022-09-23T12:08:12.968Z,18.36
2022-09-23T12:09:12.917Z,18.53
2022-09-23T12:10:12.926Z,18.65
2022-09-23T12:11:12.926Z,18.72
2022-09-23T12:12:12.947Z,18.83
2022-09-23T12:13:12.933Z,18.97
2022-09-23T12:14:12.897Z,19.07
2022-09-23T12:15:12.895Z,19.15
2022-09-23T12:16:12.935Z,19.05
2022-09-23T12:17:12.898Z,18.87
2022-09-23T12:18:12.966Z,19.02
2022-09-23T12:19:12.874Z,19.05
2022-09-23T12:20:12.865Z,19.23
2022-09-23T12:21:27.463Z,19.25
2022-09-23T12:22:14.866Z,19.31
2022-09-23T12:23:12.888Z,19.39
2022-09-23T12:24:17.086Z,19.38
2022-09-23T12:25:14.812Z,19.42
2022-09-23T12:26:12.850Z,19.49
2022-09-23T12:27:12.843Z,19.42
2022-09-23T12:28:12.941Z,19.38
2022-09-23T12:29:13.024Z,19.45
2022-09-23T12:30:12.829Z,19.49
2022-09-23T12:31:12.909Z,19.65
2022-09-23T12:32:12.769Z,19.67
2022-09-23T12:33:12.822Z,19.71
2022-09-23T12:34:12.826Z,19.60
2022-09-23T12:35:12.775Z,19.53
2022-09-23T12:36:12.797Z,19.58
2022-09-23T12:37:12.718Z,19.52
2022-09-23T12:38:12.756Z,19.61
2022-09-23T12:39:12.790Z,19.62
2022-09-23T12:40:12.858Z,19.53
2022-09-23T12:41:12.758Z,19.61
2022-09-23T12:42:12.729Z,19.62
2022-09-23T12:43:12.741Z,19.72
2022-09-23T12:44:12.773Z,19.61
2022-09-23T12:45:12.725Z,19.55
2022-09-23T12:46:12.749Z,19.60
2022-09-23T12:47:12.697Z,19.53
2022-09-23T12:48:12.691Z,19.52
2022-09-23T12:49:12.661Z,19.58
2022-09-23T12:50:17.111Z,19.70
2022-09-23T12:51:14.642Z,19.62
2022-09-23T12:52:12.813Z,19.67
2022-09-23T12:53:12.667Z,19.76
2022-09-23T12:54:12.679Z,19.68
2022-09-23T12:55:12.706Z,19.65
2022-09-23T12:56:12.604Z,19.67
2022-09-23T12:57:12.620Z,19.61
2022-09-23T12:58:12.626Z,19.53
2022-09-23T12:59:12.760Z,19.39
2022-09-23T13:00:12.621Z,19.38
2022-09-23T13:01:12.714Z,19.28
2022-09-23T13:02:12.643Z,19.23
2022-09-23T13:03:12.578Z,19.13
2022-09-23T13:04:12.618Z,19.12
2022-09-23T13:05:12.574Z,19.21
2022-09-23T13:06:12.666Z,19.27
2022-09-23T13:07:12.625Z,19.24
2022-09-23T13:08:12.564Z,19.16